Time;durP1;ratioP1;P1;durP2;ratioP2;P2;SDS_P1;SDS_P2;PMS_P1;PMS_P2;Temp;Humidity;BMP_temperature;BMP_pressure;BME280_temperature;BME280_humidity;BME280_pressure;Samples;Min_cycle;Max_cycle;Signal;HPM_P1;HPM_P2
2022/10/06 00:01:15;;;;;;;;;7.50;7.00;;;;;17.11;50.93;102111.16;146615;616;46014;-66
2022/10/06 00:04:15;;;;;;;;;11.25;8.75;;;;;17.14;51.23;102108.66;146617;632;46014;-68
2022/10/06 00:07:11;;;;;;;;;8.00;7.00;;;;;17.24;51.23;102108.25;146621;563;46020;-67
2022/10/06 00:10:19;;;;;;;;;7.50;6.50;;;;;17.30;50.47;102106.81;146619;577;46016;-68
2022/10/06 00:13:14;;;;;;;;;10.00;8.50;;;;;17.36;51.77;102114.06;146618;571;47010;-68
2022/10/06 00:16:28;;;;;;;;;7.75;7.00;;;;;16.39;50.65;101934.03;146617;599;46016;-68
2022/10/06 00:19:26;;;;;;;;;5.50;5.50;;;;;17.40;52.00;102109.84;146621;576;46020;-68
2022/10/06 00:22:29;;;;;;;;;6.25;6.25;;;;;17.42;50.92;102114.34;146615;569;46016;-68
2022/10/06 00:25:42;;;;;;;;;9.50;8.50;;;;;16.31;50.86;101917.06;146621;630;46010;-69
2022/10/06 00:28:37;;;;;;;;;6.25;6.00;;;;;17.42;52.36;102100.34;146618;663;46911;-68
2022/10/06 00:31:33;;;;;;;;;7.50;6.75;;;;;17.36;53.21;102103.56;146617;587;46010;-67
2022/10/06 00:34:35;;;;;;;;;;;;;;;;;;;;;
2022/10/06 00:37:31;;;;;;;;;5.50;5.25;;;;;17.33;51.63;102099.91;146623;626;46010;-69
2022/10/06 00:40:27;;;;;;;;;6.00;6.00;;;;;17.33;52.74;102106.06;146617;600;46012;-66
2022/10/06 00:43:55;;;;;;;;;8.25;7.50;;;;;17.33;50.76;102098.19;146624;604;45020;-68
2022/10/06 00:47:06;;;;;;;;;9.25;6.25;;;;;17.36;51.93;102094.81;146618;608;46012;-69
2022/10/06 00:50:01;;;;;;;;;6.50;6.50;;;;;17.33;53.87;102081.56;146621;612;46014;-69
2022/10/06 00:53:03;;;;;;;;;9.75;6.75;;;;;17.28;53.03;102084.84;146618;612;46016;-68
2022/10/06 00:56:11;;;;;;;;;7.50;5.75;;;;;16.23;53.14;101899.22;146617;591;46021;-71
2022/10/06 00:59:04;;;;;;;;;5.25;5.25;;;;;17.18;53.15;102076.53;146617;564;46012;-70
2022/10/06 01:02:39;;;;;;;;;6.75;6.25;;;;;17.15;51.93;102066.78;146615;712;46021;-70
2022/10/06 01:05:49;;;;;;;;;5.50;5.50;;;;;17.20;51.63;102072.25;146618;654;46012;-70
2022/10/06 01:08:43;;;;;;;;;5.25;5.25;;;;;17.25;52.78;102074.22;146623;570;46010;-69
2022/10/06 01:11:45;;;;;;;;;6.75;6.75;;;;;17.25;52.88;102073.34;146619;584;46016;-70
2022/10/06 01:14:56;;;;;;;;;5.25;5.25;;;;;17.22;52.51;102070.56;146620;645;46029;-68
2022/10/06 01:18:17;;;;;;;;;7.00;6.25;;;;;17.19;50.99;102073.06;146620;597;46017;-70
2022/10/06 01:21:50;;;;;;;;;7.25;6.25;;;;;17.13;51.54;102065.81;146622;648;46010;-70
2022/10/06 01:24:53;;;;;;;;;7.25;6.00;;;;;17.14;51.82;102061.50;146616;566;46023;-70
2022/10/06 01:27:56;;;;;;;;;8.50;7.50;;;;;17.18;51.87;102066.03;146621;569;46010;-70
2022/10/06 01:31:01;;;;;;;;;8.25;6.00;;;;;17.21;52.25;102056.59;146617;686;46012;-70
2022/10/06 01:34:00;;;;;;;;;6.00;5.00;;;;;17.22;51.72;102060.09;146616;599;46014;-67
2022/10/06 01:36:57;;;;;;;;;8.75;8.00;;;;;17.21;52.52;102050.44;146618;607;46016;-66
2022/10/06 01:39:49;;;;;;;;;11.00;8.00;;;;;17.21;52.41;102035.59;146621;580;46011;-69
2022/10/06 01:42:47;;;;;;;;;11.00;9.00;;;;;17.24;52.48;102045.34;146617;612;46014;-70
2022/10/06 01:45:55;;;;;;;;;9.00;8.00;;;;;17.26;51.95;102047.22;146619;683;46020;-67
2022/10/06 01:48:51;;;;;;;;;9.75;7.25;;;;;17.22;51.81;102032.16;146619;670;46012;-66
2022/10/06 01:51:49;;;;;;;;;9.00;8.00;;;;;17.23;52.84;102033.06;146623;624;46010;-67
2022/10/06 01:55:00;;;;;;;;;9.25;9.25;;;;;17.18;52.69;102031.97;146615;570;46016;-68
2022/10/06 01:58:05;;;;;;;;;;;;;;;;;;;;;
2022/10/06 02:01:00;;;;;;;;;7.50;7.50;;;;;17.07;53.32;102032.38;146618;600;46017;-69
2022/10/06 02:03:55;;;;;;;;;16.50;13.00;;;;;17.02;53.89;102033.87;146614;681;46010;-69
2022/10/06 02:06:54;;;;;;;;;10.75;9.75;;;;;16.96;54.60;102020.50;146616;569;46016;-70
2022/10/06 02:09:53;;;;;;;;;13.50;12.25;;;;;16.92;54.91;102023.81;146621;577;46010;-66
2022/10/06 02:12:53;;;;;;;;;15.75;13.75;;;;;16.91;54.30;102021.09;146611;575;46016;-70
2022/10/06 02:15:55;;;;;;;;;14.75;13.75;;;;;16.91;53.94;102022.00;146613;573;46031;-71
2022/10/06 02:18:54;;;;;;;;;15.75;12.75;;;;;16.96;53.63;102014.38;146614;569;46014;-71
2022/10/06 02:21:57;;;;;;;;;13.75;10.75;;;;;17.02;52.87;102014.66;146618;613;46010;-71
2022/10/06 02:24:50;;;;;;;;;13.50;12.50;;;;;17.05;53.63;102010.44;146612;582;46016;-66
2022/10/06 02:27:45;;;;;;;;;16.00;14.25;;;;;17.09;53.19;102009.75;146614;601;46020;-66
2022/10/06 02:30:49;;;;;;;;;15.00;15.00;;;;;17.14;53.30;102023.06;146612;583;46017;-66
2022/10/06 02:33:47;;;;;;;;;20.50;17.75;;;;;17.16;52.52;102041.47;146612;581;46036;-66
2022/10/06 02:36:43;;;;;;;;;18.50;15.75;;;;;17.11;52.05;102029.91;146613;604;46016;-66
2022/10/06 02:39:51;;;;;;;;;13.00;11.00;;;;;17.07;53.06;102029.75;146617;574;46010;-67
2022/10/06 02:42:49;;;;;;;;;12.00;11.00;;;;;17.07;52.99;102010.50;146612;579;46016;-69
2022/10/06 02:45:57;;;;;;;;;9.75;9.50;;;;;17.10;51.24;102031.59;146622;576;46015;-68
2022/10/06 02:48:56;;;;;;;;;8.75;8.75;;;;;17.15;52.29;102026.59;146617;641;46016;-67
2022/10/06 02:51:54;;;;;;;;;8.00;8.00;;;;;17.18;52.11;102030.22;146622;571;46010;-69
2022/10/06 02:54:52;;;;;;;;;6.00;6.00;;;;;17.25;52.12;102024.44;146618;592;46013;-69
2022/10/06 02:57:44;;;;;;;;;8.25;7.25;;;;;17.31;51.10;102018.56;146620;577;46010;-68
2022/10/06 03:00:41;;;;;;;;;8.25;6.75;;;;;17.34;52.13;102015.19;146616;632;46016;-70
2022/10/06 03:03:49;;;;;;;;;6.00;6.00;;;;;16.31;51.62;101843.78;146616;624;46010;-69
2022/10/06 03:07:04;;;;;;;;;6.25;6.00;;;;;16.28;51.29;101833.16;146615;654;46915;-70
2022/10/06 03:10:11;;;;;;;;;7.00;7.00;;;;;17.27;51.84;102006.16;146622;591;46010;-67
2022/10/06 03:13:05;;;;;;;;;7.00;6.25;;;;;17.27;52.96;102006.16;146619;571;46915;-66
2022/10/06 03:15:58;;;;;;;;;9.50;8.25;;;;;17.30;52.78;102007.19;146619;585;46021;-69
2022/10/06 03:19:04;;;;;;;;;9.00;9.00;;;;;17.29;52.88;102004.50;146618;571;46016;-71
2022/10/06 03:21:57;;;;;;;;;11.00;8.25;;;;;17.23;53.14;102017.34;146621;698;46010;-71
2022/10/06 03:24:49;;;;;;;;;9.25;8.50;;;;;17.15;53.95;102008.22;146616;584;45916;-73
2022/10/06 03:27:43;;;;;;;;;11.00;9.00;;;;;17.13;53.48;102015.12;146619;667;46020;-72
2022/10/06 03:30:39;;;;;;;;;9.00;9.00;;;;;17.12;54.63;102018.56;146615;592;46017;-73
2022/10/06 03:33:33;;;;;;;;;13.00;10.25;;;;;17.06;55.79;102040.16;146615;591;46020;-72
2022/10/06 03:36:27;;;;;;;;;10.75;10.25;;;;;17.02;55.24;102041.75;146612;592;46016;-70
2022/10/06 03:39:25;;;;;;;;;10.75;10.50;;;;;17.02;54.07;102033.00;146617;587;46021;-70
2022/10/06 03:42:21;;;;;;;;;9.25;8.25;;;;;17.03;53.83;102027.81;146614;569;46012;-73
2022/10/06 03:45:18;;;;;;;;;10.75;10.00;;;;;17.05;54.90;102025.28;146622;565;46014;-74
2022/10/06 03:48:22;;;;;;;;;13.50;11.00;;;;;17.00;55.13;102032.00;146615;563;46012;-75
2022/10/06 03:51:21;;;;;;;;;13.75;13.00;;;;;16.89;55.62;102035.88;146616;597;46020;-73
2022/10/06 03:54:16;;;;;;;;;20.00;15.25;;;;;16.83;55.16;102031.25;146613;604;47012;-74
2022/10/06 03:57:15;;;;;;;;;13.25;13.25;;;;;16.77;55.22;102026.63;146613;588;47010;-73
2022/10/06 04:00:19;;;;;;;;;14.75;13.50;;;;;16.75;54.13;102035.19;146614;625;46017;-72
2022/10/06 04:03:17;;;;;;;;;15.00;13.50;;;;;16.77;54.71;102025.72;146610;614;46020;-70
2022/10/06 04:06:18;;;;;;;;;13.50;12.50;;;;;16.79;55.02;102024.03;146614;578;46012;-72
2022/10/06 04:09:19;;;;;;;;;13.75;11.00;;;;;16.81;53.59;102031.16;146617;618;46021;-71
2022/10/06 04:12:11;;;;;;;;;15.75;13.75;;;;;16.83;54.52;102028.62;146614;680;46012;-70
2022/10/06 04:15:09;;;;;;;;;16.25;12.75;;;;;16.82;54.89;102025.12;146618;574;46011;-70
2022/10/06 04:18:07;;;;;;;;;13.50;11.75;;;;;16.81;55.13;102023.31;146614;602;46012;-70
2022/10/06 04:21:03;;;;;;;;;14.25;11.50;;;;;16.80;53.80;102020.63;146617;597;46010;-69
2022/10/06 04:23:59;;;;;;;;;14.00;13.00;;;;;16.77;54.78;102015.25;146613;564;46016;-70
2022/10/06 04:26:54;;;;;;;;;14.25;13.25;;;;;16.71;54.09;102022.78;146618;565;46020;-67
2022/10/06 04:30:08;;;;;;;;;16.75;12.50;;;;;16.68;54.06;102010.44;146614;596;46013;-67
2022/10/06 04:33:08;;;;;;;;;14.25;11.75;;;;;16.58;54.57;102022.19;146611;604;46020;-68
2022/10/06 04:36:25;;;;;;;;;12.00;10.00;;;;;16.38;55.62;102025.56;146612;564;46016;-68
2022/10/06 04:39:23;;;;;;;;;12.50;11.00;;;;;16.16;57.39;102027.13;146616;581;47010;-68
2022/10/06 04:42:19;;;;;;;;;11.00;11.00;;;;;16.00;57.87;102032.44;146616;615;46016;-67
2022/10/06 04:45:16;;;;;;;;;14.25;11.00;;;;;15.91;57.94;102039.81;146619;570;46021;-67
2022/10/06 04:48:11;;;;;;;;;11.50;11.50;;;;;15.89;57.49;102039.75;146616;610;46913;-67
2022/10/06 04:51:24;;;;;;;;;8.50;8.25;;;;;14.92;55.40;101861.41;146617;673;46021;-69
2022/10/06 04:54:27;;;;;;;;;10.25;10.00;;;;;16.06;56.31;102037.97;146616;615;46016;-65
2022/10/06 04:57:19;;;;;;;;;11.25;9.00;;;;;16.20;57.09;102035.16;146612;570;47010;-65
2022/10/06 05:00:34;;;;;;;;;;;;;;;;;;;;;
2022/10/06 05:03:37;;;;;;;;;9.25;8.75;;;;;16.45;56.79;102040.78;146616;680;46010;-69
2022/10/06 05:06:47;;;;;;;;;8.50;7.75;;;;;16.89;55.21;102039.38;146614;583;46017;-69
2022/10/06 05:09:45;;;;;;;;;8.00;8.00;;;;;17.26;54.94;102041.06;146621;584;46037;-69
2022/10/06 05:12:37;;;;;;;;;8.75;6.25;;;;;18.11;53.97;102043.91;146620;634;46012;-70
2022/10/06 05:15:51;;;;;;;;;7.50;7.25;;;;;19.15;50.93;102039.25;146620;630;46020;-69
2022/10/06 05:18:46;;;;;;;;;7.50;6.00;;;;;19.67;49.03;102030.63;146618;619;46016;-69
2022/10/06 05:21:40;;;;;;;;;8.50;7.50;;;;;19.54;48.68;102036.28;146621;630;46029;-71
2022/10/06 05:24:49;;;;;;;;;8.00;8.00;;;;;19.23;48.80;102037.81;146618;594;46012;-69
2022/10/06 05:27:50;;;;;;;;;8.75;8.00;;;;;19.01;49.18;102051.88;146619;608;46021;-69
2022/10/06 05:30:43;;;;;;;;;9.00;9.00;;;;;18.82;49.63;102049.41;146614;677;46016;-69
2022/10/06 05:33:54;;;;;;;;;7.25;7.00;;;;;17.69;50.35;101877.69;146614;596;46020;-69
2022/10/06 05:36:52;;;;;;;;;9.00;7.50;;;;;18.53;50.18;102043.84;146618;599;46013;-69
2022/10/06 05:39:52;;;;;;;;;6.00;6.00;;;;;18.48;50.49;102047.16;146620;668;46020;-69
2022/10/06 05:42:44;;;;;;;;;7.00;6.75;;;;;18.46;51.20;102066.34;146617;608;46914;-69
2022/10/06 05:45:37;;;;;;;;;4.50;4.50;;;;;18.44;50.46;102040.84;146620;625;46020;-70
2022/10/06 05:48:43;;;;;;;;;5.00;4.00;;;;;18.32;49.67;102051.78;146618;653;46034;-66
2022/10/06 05:51:41;;;;;;;;;7.00;7.00;;;;;18.28;51.64;102062.06;146621;630;46021;-65
2022/10/06 05:54:33;;;;;;;;;7.50;7.50;;;;;18.28;51.08;102055.09;146614;664;46016;-66
2022/10/06 05:57:28;;;;;;;;;14.00;8.00;;;;;18.31;50.37;102049.06;146620;586;46020;-66
2022/10/06 06:00:29;;;;;;;;;6.25;6.00;;;;;18.37;49.69;102054.56;146616;569;46016;-68
2022/10/06 06:03:33;;;;;;;;;9.00;8.25;;;;;18.41;51.55;102057.41;146616;646;46010;-67
2022/10/06 06:07:05;;;;;;;;;7.50;7.50;;;;;18.40;50.42;102058.22;146617;600;46016;-68
2022/10/06 06:09:58;;;;;;;;;7.25;7.25;;;;;18.41;50.16;102052.16;146621;585;46014;-67
2022/10/06 06:13:38;;;;;;;;;6.50;5.00;;;;;18.46;50.24;102053.22;146615;697;46017;-67
2022/10/06 06:16:36;;;;;;;;;4.00;4.00;;;;;18.53;49.85;102056.97;146617;628;46010;-67
2022/10/06 06:19:32;;;;;;;;;6.50;6.50;;;;;18.62;49.71;102064.34;146617;619;46012;-67
2022/10/06 06:22:25;;;;;;;;;10.00;8.00;;;;;18.80;50.05;102065.09;146619;646;47010;-66
2022/10/06 06:25:21;;;;;;;;;7.00;7.00;;;;;18.97;50.50;102075.34;146614;572;46016;-69
2022/10/06 06:28:35;;;;;;;;;9.00;8.75;;;;;19.09;49.61;102074.09;146619;628;46010;-67
2022/10/06 06:31:32;;;;;;;;;10.75;9.50;;;;;19.13;49.65;102069.88;146618;569;46012;-66
2022/10/06 06:34:29;;;;;;;;;10.50;9.50;;;;;19.23;50.40;102086.88;146614;648;47010;-68
2022/10/06 06:37:24;;;;;;;;;9.00;9.00;;;;;19.30;50.12;102089.78;146615;585;46014;-67
2022/10/06 06:40:17;;;;;;;;;7.50;6.25;;;;;19.41;48.55;102081.37;146619;571;46020;-66
2022/10/06 06:43:14;;;;;;;;;8.25;7.25;;;;;19.61;48.11;102085.66;146615;617;46028;-67
2022/10/06 06:46:13;;;;;;;;;10.25;8.50;;;;;19.74;47.54;102085.25;146623;645;46030;-65
2022/10/06 06:49:15;;;;;;;;;7.25;7.00;;;;;19.86;47.26;102076.03;146616;663;46016;-66
2022/10/06 06:52:28;;;;;;;;;9.75;9.00;;;;;19.98;47.34;102074.72;146620;581;46020;-66
2022/10/06 06:55:37;;;;;;;;;7.00;7.00;;;;;20.26;46.22;102075.62;146617;672;47012;-67
2022/10/06 06:58:32;;;;;;;;;5.50;5.50;;;;;20.51;46.56;102077.31;146620;676;46020;-67
2022/10/06 07:01:29;;;;;;;;;8.50;4.50;;;;;20.80;45.85;102069.47;146615;575;47012;-70
2022/10/06 07:04:22;;;;;;;;;8.25;6.50;;;;;20.95;45.08;102064.66;146617;577;46021;-70
2022/10/06 07:07:15;;;;;;;;;7.75;6.75;;;;;20.97;45.00;102070.87;146618;574;46012;-69
2022/10/06 07:10:21;;;;;;;;;7.25;5.75;;;;;20.90;45.66;102072.44;146621;567;46020;-69
2022/10/06 07:13:21;;;;;;;;;9.25;7.00;;;;;20.86;45.72;102067.03;146616;655;46017;-72
2022/10/06 07:26:31;;;;;;;;;9.00;7.75;;;;;20.74;45.87;102054.34;146617;579;46016;-72
2022/10/06 07:29:46;;;;;;;;;;;;;;;;;;;;;
2022/10/06 07:32:53;;;;;;;;;;;;;;;;;;;;;
2022/10/06 07:35:53;;;;;;;;;6.75;6.75;;;;;20.61;45.97;102055.72;146617;611;46020;-70
2022/10/06 07:38:48;;;;;;;;;7.00;5.75;;;;;20.61;45.94;102058.34;146618;563;46016;-69
2022/10/06 07:41:45;;;;;;;;;7.50;6.00;;;;;20.66;46.27;102058.50;146622;690;46010;-67
2022/10/06 07:44:38;;;;;;;;;7.75;6.25;;;;;20.72;46.20;102056.06;146617;569;46016;-69
2022/10/06 07:47:42;;;;;;;;;10.50;8.00;;;;;20.83;45.56;102053.75;146621;584;47010;-69
2022/10/06 07:50:36;;;;;;;;;11.50;7.75;;;;;20.94;45.05;102057.63;146616;728;46016;-68
2022/10/06 07:53:48;;;;;;;;;6.25;5.75;;;;;20.99;44.85;102054.25;146621;700;46020;-68
2022/10/06 07:56:53;;;;;;;;;;;;;;;;;;;;;
2022/10/06 07:59:59;;;;;;;;;;;;;;;;;;;;;
2022/10/06 08:02:55;;;;;;;;;6.00;5.00;;;;;21.21;44.30;102053.16;146617;582;46913;-66
2022/10/06 08:06:04;;;;;;;;;5.00;4.00;;;;;19.53;44.68;101750.34;146618;587;46020;-67
2022/10/06 08:08:57;;;;;;;;;6.00;4.25;;;;;21.37;44.66;102053.59;146612;606;46012;-67
2022/10/06 08:12:31;;;;;;;;;5.00;4.25;;;;;21.49;44.04;102056.56;146619;661;46021;-67
2022/10/06 08:15:17;;;;;;;;;4.50;4.50;;;;;21.65;42.91;102056.16;146618;569;46012;-69
2022/10/06 08:18:11;;;;;;;;;5.00;4.25;;;;;21.75;43.13;102052.03;146622;569;46021;-67
2022/10/06 08:21:23;;;;;;;;;3.50;3.00;;;;;21.81;43.84;102046.00;146617;635;46016;-68
2022/10/06 08:24:19;;;;;;;;;4.00;4.00;;;;;21.82;41.55;102042.50;146621;577;46010;-66
2022/10/06 08:27:16;;;;;;;;;4.67;3.00;;;;;21.90;43.26;102041.88;146616;597;46017;-66
2022/10/06 08:30:17;;;;;;;;;3.33;3.33;;;;;22.13;42.43;102045.06;146620;651;46020;-66
2022/10/06 08:33:16;;;;;;;;;2.50;2.50;;;;;22.27;41.03;102036.63;146616;677;46915;-66
2022/10/06 08:36:29;;;;;;;;;3.33;3.33;;;;;22.30;40.72;102031.41;146618;667;47010;-67
2022/10/06 08:39:33;;;;;;;;;2.33;2.33;;;;;22.24;40.22;102028.62;146617;589;46915;-66
2022/10/06 08:43:14;;;;;;;;;5.00;4.00;;;;;20.40;41.93;101731.87;146622;584;46010;-67
2022/10/06 08:46:13;;;;;;;;;5.25;3.75;;;;;22.16;40.08;102035.44;146615;577;47014;-68
2022/10/06 08:49:26;;;;;;;;;3.25;3.25;;;;;22.34;41.30;102030.63;146620;625;46010;-66
2022/10/06 08:52:59;;;;;;;;;3.33;2.67;;;;;22.39;40.75;102036.03;146617;710;46023;-66
2022/10/06 08:56:29;;;;;;;;;;;;;;;;;;;;;
2022/10/06 08:59:25;;;;;;;;;5.00;3.25;;;;;22.45;40.90;102039.69;146615;595;47012;-66
2022/10/06 09:02:48;;;;;;;;;3.50;3.50;;;;;22.78;40.92;102036.03;146620;583;47011;-68
2022/10/06 09:05:44;;;;;;;;;2.67;2.67;;;;;23.14;39.02;102030.66;146619;621;46012;-67
2022/10/06 09:09:07;;;;;;;;;3.33;3.00;;;;;21.61;40.25;101740.19;146610;575;46020;-66
2022/10/06 09:12:56;;;;;;;;;;;;;;;;;;;;;
2022/10/06 09:15:59;;;;;;;;;2.00;2.00;;;;;23.14;38.90;102028.00;146617;608;47010;-66
2022/10/06 09:19:02;;;;;;;;;2.00;2.00;;;;;23.11;38.40;102027.94;146617;583;46014;-66
2022/10/06 09:21:59;;;;;;;;;4.50;2.75;;;;;23.12;38.14;102020.94;146618;692;46020;-67
2022/10/06 09:25:01;;;;;;;;;4.75;3.75;;;;;23.19;37.73;102020.19;146617;606;46013;-66
2022/10/06 09:28:00;;;;;;;;;5.00;3.75;;;;;23.22;38.77;102021.13;146618;633;46014;-66
2022/10/06 09:30:55;;;;;;;;;1.75;1.75;;;;;23.31;37.96;102016.87;146613;579;46016;-67
2022/10/06 09:34:15;;;;;;;;;2.25;2.25;;;;;23.44;37.85;102016.25;146617;608;46021;-66
2022/10/06 09:37:17;;;;;;;;;3.00;3.00;;;;;23.41;37.81;102014.44;146613;577;47016;-67
2022/10/06 09:40:38;;;;;;;;;2.75;2.75;;;;;21.55;38.91;101720.69;146620;573;46021;-66
2022/10/06 09:43:31;;;;;;;;;3.00;3.00;;;;;;;;146617;572;46036;-67
2022/10/06 09:46:42;;;;;;;;;4.00;3.67;;;;;22.97;39.32;102014.44;146622;579;46008;-66
2022/10/06 09:49:37;;;;;;;;;3.50;3.50;;;;;22.90;38.45;102015.16;146617;583;46018;-68
2022/10/06 09:52:29;;;;;;;;;4.33;3.00;;;;;22.87;38.89;102015.09;146623;581;47018;-67
2022/10/06 09:55:25;;;;;;;;;3.00;3.00;;;;;22.85;38.22;102011.50;146620;564;46019;-67
2022/10/06 09:58:28;;;;;;;;;2.33;2.33;;;;;22.87;38.76;102014.19;146622;564;46018;-67
2022/10/06 10:01:29;;;;;;;;;2.00;2.00;;;;;22.91;38.92;102013.41;146618;592;46911;-68
2022/10/06 10:04:29;;;;;;;;;3.33;3.00;;;;;22.90;38.54;102003.69;146623;643;46018;-67
2022/10/06 10:07:32;;;;;;;;;3.00;3.00;;;;;23.00;38.71;102005.69;146617;584;47010;-68
2022/10/06 10:10:30;;;;;;;;;5.00;4.50;;;;;23.32;38.44;102001.03;146617;642;46019;-66
2022/10/06 10:13:33;;;;;;;;;2.33;2.33;;;;;23.69;36.35;101996.44;146617;569;46033;-69
2022/10/06 10:16:45;;;;;;;;;3.50;3.50;;;;;23.83;38.78;101992.28;146622;589;46008;-67
2022/10/06 10:19:46;;;;;;;;;1.00;1.00;;;;;23.83;37.19;101986.06;146615;566;47033;-68
2022/10/06 10:22:42;;;;;;;;;2.75;2.75;;;;;23.72;36.55;101981.50;146621;579;46018;-67
2022/10/06 10:26:13;;;;;;;;;2.00;2.00;;;;;21.95;38.03;101688.09;146619;642;46030;-67
2022/10/06 10:30:05;;;;;;;;;2.00;2.00;;;;;21.79;38.36;101672.81;146621;584;46018;-67
2022/10/06 10:33:27;;;;;;;;;1.00;1.00;;;;;23.25;37.55;101970.03;146617;616;46912;-67
2022/10/06 10:36:22;;;;;;;;;3.00;3.00;;;;;23.12;37.48;101966.25;146622;563;46008;-65
2022/10/06 10:39:36;;;;;;;;;2.25;2.25;;;;;23.00;37.27;101961.59;146617;628;46019;-68
2022/10/06 10:42:51;;;;;;;;;3.67;2.33;;;;;22.89;36.79;101954.28;146617;572;46018;-66
2022/10/06 10:45:58;;;;;;;;;3.00;3.00;;;;;22.81;38.38;101968.25;146618;601;46013;-68
2022/10/06 10:49:18;;;;;;;;;2.00;2.00;;;;;22.89;38.35;101963.09;146621;586;46018;-68
2022/10/06 10:52:31;;;;;;;;;4.00;4.00;;;;;23.09;37.88;101965.31;146618;651;46013;-67
2022/10/06 10:56:05;;;;;;;;;3.00;3.00;;;;;23.33;37.79;101957.81;146620;618;46008;-68
2022/10/06 10:59:05;;;;;;;;;2.67;2.67;;;;;23.52;37.36;101967.88;146617;622;46018;-68
2022/10/06 11:02:24;;;;;;;;;2.00;2.00;;;;;23.59;37.67;101960.03;146622;570;46019;-68
2022/10/06 11:05:55;;;;;;;;;4.67;4.00;;;;;23.59;36.31;101960.94;146613;683;47010;-66
2022/10/06 11:09:23;;;;;;;;;3.67;3.67;;;;;23.57;37.91;101960.00;146623;572;46019;-67
2022/10/06 11:13:04;;;;;;;;;3.50;3.50;;;;;23.60;37.88;101957.41;146612;654;48909;-66
2022/10/06 11:16:42;;;;;;;;;2.00;2.00;;;;;23.70;38.00;101943.50;146620;636;46019;-67
2022/10/06 11:20:18;;;;;;;;;6.00;4.00;;;;;23.93;36.95;101953.59;146618;611;46018;-67
2022/10/06 11:24:01;;;;;;;;;2.50;2.50;;;;;22.43;37.39;101658.22;146619;599;46008;-68
2022/10/06 11:27:28;;;;;;;;;1.50;1.50;;;;;24.28;37.18;101932.91;146616;606;46018;-67
2022/10/06 11:30:36;;;;;;;;;;;;;;;;;;;;;
2022/10/06 11:33:57;;;;;;;;;1.25;1.25;;;;;24.80;35.17;101917.69;146615;705;47010;-67
2022/10/06 11:37:33;;;;;;;;;2.67;2.00;;;;;23.54;35.21;101674.03;146621;596;46018;-67
2022/10/06 11:40:54;;;;;;;;;2.00;2.00;;;;;24.96;35.75;101913.47;146618;677;46018;-68
2022/10/06 11:44:31;;;;;;;;;2.00;2.00;;;;;24.96;36.10;101917.87;146621;640;46018;-66
2022/10/06 11:48:03;;;;;;;;;2.33;2.33;;;;;23.57;36.16;101649.38;146618;632;46021;-67
2022/10/06 11:51:20;;;;;;;;;2.00;2.00;;;;;25.26;35.16;101907.56;146605;670;46868;-67
2022/10/06 11:54:57;;;;;;;;;3.00;3.00;;;;;23.52;32.99;101583.16;146618;591;46909;-67
2022/10/06 11:58:27;;;;;;;;;5.00;3.75;;;;;23.66;36.24;101618.59;146622;673;46018;-65
2022/10/06 12:02:05;;;;;;;;;5.00;3.00;;;;;23.61;34.88;101628.22;146608;613;47019;-69
2022/10/06 12:05:40;;;;;;;;;3.00;3.00;;;;;25.06;36.09;101903.81;146620;670;46021;-69
2022/10/06 12:09:02;;;;;;;;;2.67;2.67;;;;;23.28;34.85;101615.47;146619;648;46011;-68
2022/10/06 12:12:06;;;;;;;;;4.67;3.67;;;;;24.73;34.33;101897.25;146622;566;47008;-68
2022/10/06 12:15:30;;;;;;;;;2.75;2.75;;;;;24.63;35.86;101903.34;146619;651;46010;-69
2022/10/06 12:18:53;;;;;;;;;3.00;3.00;;;;;24.57;35.76;101909.44;146620;572;46008;-69
2022/10/06 12:22:32;;;;;;;;;3.00;3.00;;;;;24.49;35.61;101894.34;146618;613;46028;-69
2022/10/06 12:26:10;;;;;;;;;4.00;4.00;;;;;22.75;36.52;101619.09;146618;565;46008;-70
2022/10/06 12:29:45;;;;;;;;;;;;;;;;;;;;;
2022/10/06 12:33:04;;;;;;;;;3.00;2.25;;;;;24.39;36.72;101899.50;146619;565;46020;-70
2022/10/06 12:36:28;;;;;;;;;3.25;3.25;;;;;24.47;36.51;101901.37;146617;681;46013;-69
2022/10/06 12:39:43;;;;;;;;;;;;;;;;;;;;;
2022/10/06 12:42:41;;;;;;;;;5.67;4.00;;;;;24.36;36.05;101883.53;146618;563;46010;-70
2022/10/06 12:45:51;;;;;;;;;8.25;7.00;;;;;24.36;35.66;101875.59;146621;575;46018;-69
2022/10/06 12:49:38;;;;;;;;;3.00;3.00;;;;;22.72;34.88;101583.78;146617;602;46010;-67
2022/10/06 12:53:07;;;;;;;;;5.00;5.00;;;;;24.31;35.42;101869.34;146619;623;46019;-69
2022/10/06 12:56:31;;;;;;;;;8.50;7.75;;;;;22.60;35.97;101593.31;146616;618;46018;-70
2022/10/06 12:59:38;;;;;;;;;2.25;2.25;;;;;24.11;35.03;101868.16;146619;658;46008;-69
2022/10/06 13:02:39;;;;;;;;;7.25;7.25;;;;;23.95;34.77;101864.41;146619;576;46010;-69
2022/10/06 13:05:37;;;;;;;;;5.50;5.50;;;;;23.83;34.47;101859.84;146621;612;46008;-69
2022/10/06 13:08:40;;;;;;;;;5.25;5.25;;;;;23.74;34.89;101849.12;146615;654;47012;-69
2022/10/06 13:11:44;;;;;;;;;7.25;6.00;;;;;23.69;34.38;101845.50;146620;652;46012;-69
2022/10/06 13:14:43;;;;;;;;;15.00;14.75;;;;;23.66;35.40;101845.41;146615;577;47012;-70
2022/10/06 13:17:35;;;;;;;;;5.25;4.75;;;;;23.63;34.75;101850.66;146614;575;46018;-68
2022/10/06 13:21:09;;;;;;;;;2.67;1.00;;;;;23.62;34.60;101839.19;146620;565;46010;-69
2022/10/06 13:24:03;;;;;;;;;4.00;4.00;;;;;23.58;33.13;101847.03;146614;590;47010;-69
2022/10/06 13:27:01;;;;;;;;;4.75;4.75;;;;;23.48;34.01;101846.91;146614;680;46018;-68
2022/10/06 13:30:24;;;;;;;;;6.00;5.00;;;;;22.58;34.64;101699.88;146615;660;46008;-69
2022/10/06 13:33:23;;;;;;;;;7.00;7.00;;;;;23.27;33.40;101835.97;146616;629;46018;-69
2022/10/06 13:36:22;;;;;;;;;6.33;5.00;;;;;23.16;33.32;101835.78;146620;602;46013;-70
2022/10/06 13:39:44;;;;;;;;;;;;;;;;;;;;;
2022/10/06 13:42:39;;;;;;;;;3.00;2.00;;;;;22.99;36.18;101830.22;146621;587;46018;-68
2022/10/06 13:45:42;;;;;;;;;3.00;3.00;;;;;23.01;33.13;101814.34;146613;631;46019;-69
2022/10/06 13:48:48;;;;;;;;;6.33;3.67;;;;;23.16;33.74;101817.28;146621;586;46018;-68
2022/10/06 13:51:51;;;;;;;;;3.00;3.00;;;;;23.38;33.92;101813.22;146616;668;46010;-70
2022/10/06 13:55:05;;;;;;;;;3.00;3.00;;;;;23.57;33.83;101800.28;146620;670;47008;-69
2022/10/06 13:58:24;;;;;;;;;3.00;3.00;;;;;22.04;34.01;101513.97;146618;591;46010;-69
2022/10/06 14:01:16;;;;;;;;;6.00;5.33;;;;;23.71;32.99;101790.81;146619;615;46018;-68
2022/10/06 14:04:32;;;;;;;;;7.75;6.75;;;;;23.69;34.08;101792.53;146617;683;46028;-69
2022/10/06 14:07:25;;;;;;;;;2.33;1.67;;;;;23.62;31.02;101796.81;146623;570;46012;-70
2022/10/06 14:11:03;;;;;;;;;9.00;9.00;;;;;23.56;34.16;101796.75;146618;729;46010;-69
2022/10/06 14:14:29;;;;;;;;;;;;;;;;;;;;;
2022/10/06 14:17:35;;;;;;;;;2.00;2.00;;;;;23.71;33.31;101791.69;146616;564;46018;-69
2022/10/06 14:21:01;;;;;;;;;2.00;2.00;;;;;22.81;33.65;101618.31;146622;631;46008;-69
2022/10/06 14:24:01;;;;;;;;;4.00;2.33;;;;;23.72;32.24;101788.16;146609;581;47911;-68
2022/10/06 14:26:56;;;;;;;;;2.00;2.00;;;;;23.69;31.81;101788.12;146621;605;46018;-69
2022/10/06 14:29:48;;;;;;;;;2.00;2.00;;;;;23.64;30.60;101786.25;146607;564;47911;-69
2022/10/06 14:32:49;;;;;;;;;0.00;0.00;;;;;23.62;31.73;101788.00;146619;611;46008;-70
2022/10/06 14:35:50;;;;;;;;;2.00;2.00;;;;;23.63;32.03;101792.41;146617;565;46030;-70
2022/10/06 14:38:58;;;;;;;;;0.50;0.50;;;;;23.59;32.04;101790.59;146619;579;46018;-69
2022/10/06 14:42:06;;;;;;;;;;;;;;;;;;;;;
2022/10/06 14:45:20;;;;;;;;;2.50;2.50;;;;;21.61;33.34;101468.34;146620;640;46019;-69
2022/10/06 14:48:26;;;;;;;;;3.50;3.50;;;;;23.37;32.62;101790.28;146616;589;46018;-70
2022/10/06 14:51:32;;;;;;;;;5.25;4.50;;;;;23.33;32.81;101785.78;146621;685;46018;-70
2022/10/06 14:54:43;;;;;;;;;;;;;;;;;;;;;
2022/10/06 14:57:41;;;;;;;;;3.75;3.75;;;;;23.20;32.77;101784.69;146622;592;46008;-69
2022/10/06 15:00:50;;;;;;;;;3.50;2.00;;;;;23.14;33.06;101778.41;146617;567;46912;-68